createdAt,value
2018-04-19T00:01:53.829Z,91.70
2018-04-19T00:04:21.377Z,91.80
2018-04-19T00:06:48.851Z,91.80
2018-04-19T00:09:16.344Z,91.50
2018-04-19T00:11:44.709Z,91.40
2018-04-19T00:14:12.996Z,91.60
2018-04-19T00:16:40.501Z,92.00
2018-04-19T00:19:08.007Z,92.10
2018-04-19T00:21:35.503Z,92.10
2018-04-19T00:24:03.760Z,92.50
2018-04-19T00:26:32.028Z,92.20
2018-04-19T00:29:00.299Z,92.30
2018-04-19T00:31:27.801Z,92.30
2018-04-19T00:33:55.310Z,92.40
2018-04-19T00:36:22.806Z,92.30
2018-04-19T00:38:50.299Z,92.80
2018-04-19T00:41:17.899Z,92.50
2018-04-19T00:43:45.418Z,92.60
2018-04-19T00:46:13.408Z,92.30
2018-04-19T00:48:40.872Z,92.60
2018-04-19T00:51:08.359Z,92.90
2018-04-19T00:53:36.606Z,92.80
2018-04-19T00:56:04.109Z,92.70
2018-04-19T00:58:31.612Z,93.20
2018-04-19T01:00:59.089Z,93.10
2018-04-19T01:03:26.597Z,93.30
2018-04-19T01:05:54.326Z,93.70
2018-04-19T01:08:22.651Z,93.70
2018-04-19T01:10:50.136Z,93.70
2018-04-19T01:13:17.647Z,93.70
2018-04-19T01:15:45.147Z,93.70
2018-04-19T01:18:12.767Z,93.80
2018-04-19T01:20:40.247Z,93.80
2018-04-19T01:23:07.730Z,93.90
2018-04-19T01:25:35.221Z,93.90
2018-04-19T01:28:02.812Z,94.10
2018-04-19T01:30:30.302Z,94.40
2018-04-19T01:32:58.575Z,94.10
2018-04-19T01:35:37.990Z,94.10
2018-04-19T01:38:05.486Z,94.20
2018-04-19T01:40:32.960Z,94.10
2018-04-19T01:43:00.448Z,94.10
2018-04-19T01:45:27.951Z,94.20
2018-04-19T01:47:55.458Z,94.30
2018-04-19T01:50:22.967Z,94.30
2018-04-19T01:52:50.470Z,94.60
2018-04-19T01:55:18.720Z,94.70
2018-04-19T01:57:46.702Z,94.70
2018-04-19T02:00:14.996Z,94.90
2018-04-19T02:02:43.241Z,94.90
2018-04-19T02:05:10.756Z,94.80
2018-04-19T02:07:38.284Z,95.20
2018-04-19T02:10:06.548Z,94.80
2018-04-19T02:12:34.022Z,94.70
2018-04-19T02:15:02.320Z,95.00
2018-04-19T02:17:29.816Z,95.00
2018-04-19T02:19:57.318Z,94.80
2018-04-19T02:22:24.852Z,94.50
2018-04-19T02:24:52.339Z,94.50
2018-04-19T02:27:19.851Z,94.50
2018-04-19T02:29:47.354Z,94.40
2018-04-19T02:32:15.602Z,94.80
2018-04-19T02:34:43.117Z,94.70
2018-04-19T02:37:10.616Z,94.60
2018-04-19T02:39:38.187Z,94.80
2018-04-19T02:42:06.518Z,95.20
2018-04-19T02:44:34.019Z,95.20
2018-04-19T02:47:01.532Z,95.20
2018-04-19T02:49:29.141Z,95.40
2018-04-19T02:51:56.641Z,95.10
2018-04-19T02:54:24.169Z,95.20
2018-04-19T02:56:53.117Z,95.60
2018-04-19T02:59:20.578Z,95.30
2018-04-19T03:01:48.095Z,95.30
2018-04-19T03:04:15.601Z,95.20
2018-04-19T03:06:43.107Z,95.80
2018-04-19T03:09:11.337Z,95.90
2018-04-19T03:11:38.832Z,95.60
2018-04-19T03:14:07.096Z,95.90
2018-04-19T03:16:34.595Z,95.80
2018-04-19T03:19:02.102Z,95.80
2018-04-19T03:21:29.585Z,95.80
2018-04-19T03:23:57.104Z,95.50
2018-04-19T03:26:25.373Z,95.80
2018-04-19T03:28:52.896Z,95.70
2018-04-19T03:31:20.354Z,95.60
2018-04-19T03:33:47.859Z,95.60
2018-04-19T03:36:15.347Z,95.70
2018-04-19T03:38:43.608Z,95.90
2018-04-19T03:41:11.719Z,95.70
2018-04-19T03:43:39.218Z,95.70
2018-04-19T03:46:06.702Z,95.70
2018-04-19T03:48:34.193Z,95.80
2018-04-19T03:51:01.703Z,95.80
2018-04-19T03:53:29.207Z,95.80
2018-04-19T03:55:56.710Z,96.10
2018-04-19T03:58:24.234Z,95.90
2018-04-19T04:00:51.746Z,96.10
2018-04-19T04:03:19.225Z,96.10
2018-04-19T04:05:47.501Z,96.20
2018-04-19T04:08:15.764Z,96.30
2018-04-19T04:10:43.322Z,96.20
2018-04-19T04:13:10.811Z,96.70
2018-04-19T04:15:39.136Z,96.50
2018-04-19T04:21:18.583Z,96.60
2018-04-19T04:23:52.636Z,96.30
2018-04-19T04:26:20.124Z,96.60
2018-04-19T04:28:47.617Z,96.50
2018-04-19T04:31:15.286Z,96.60
2018-04-19T04:33:42.660Z,96.60
2018-04-19T04:36:10.150Z,96.40
2018-04-19T04:38:37.710Z,96.30
2018-04-19T04:41:05.953Z,96.00
2018-04-19T04:43:33.476Z,96.00
2018-04-19T04:46:01.008Z,95.80
2018-04-19T04:48:28.617Z,95.80
2018-04-19T04:50:56.929Z,95.50
2018-04-19T04:53:25.244Z,95.60
2018-04-19T04:55:52.774Z,95.30
2018-04-19T04:58:21.054Z,95.10
2018-04-19T05:00:49.481Z,94.60
2018-04-19T05:03:17.047Z,94.60
2018-04-19T05:05:45.345Z,93.00
2018-04-19T05:08:13.620Z,90.60
2018-04-19T05:10:41.722Z,90.60
2018-04-19T05:13:09.987Z,90.10
2018-04-19T05:15:37.458Z,90.20
2018-04-19T05:18:05.711Z,90.50
2018-04-19T05:20:33.190Z,90.50
2018-04-19T05:23:01.513Z,90.40
2018-04-19T05:25:29.009Z,90.40
2018-04-19T05:27:56.545Z,88.90
2018-04-19T05:30:24.869Z,82.10
2018-04-19T05:32:53.177Z,76.40
2018-04-19T05:35:20.695Z,76.20
2018-04-19T05:37:48.985Z,64.40
2018-04-19T05:40:17.230Z,62.80
2018-04-19T05:42:44.835Z,62.70
2018-04-19T05:45:12.558Z,59.00
2018-04-19T05:47:40.039Z,57.30
2018-04-19T05:50:08.291Z,55.60
2018-04-19T05:52:35.949Z,55.50
2018-04-19T05:55:03.433Z,55.00
2018-04-19T05:57:31.694Z,51.40
2018-04-19T05:59:59.960Z,50.40
2018-04-19T06:02:27.474Z,50.30
2018-04-19T06:04:55.052Z,49.40
2018-04-19T06:07:22.583Z,48.70
2018-04-19T06:09:50.091Z,50.00
2018-04-19T06:12:17.595Z,48.90
2018-04-19T06:14:45.176Z,48.80
2018-04-19T06:17:12.694Z,48.10
2018-04-19T06:19:40.511Z,48.40
2018-04-19T06:22:11.278Z,48.00
2018-04-19T06:24:39.145Z,46.60
2018-04-19T06:27:06.672Z,46.10
2018-04-19T06:29:34.490Z,46.00
2018-04-19T06:32:01.977Z,45.70
2018-04-19T06:34:29.480Z,44.70
2018-04-19T06:36:56.992Z,46.00
2018-04-19T06:39:24.542Z,44.90
2018-04-19T06:41:52.035Z,46.00
2018-04-19T06:44:19.545Z,46.10
2018-04-19T06:46:47.807Z,44.30
2018-04-19T06:49:15.283Z,44.30
2018-04-19T06:51:43.542Z,46.40
2018-04-19T06:54:15.298Z,46.30
2018-04-19T06:56:42.822Z,45.40
2018-04-19T06:59:11.101Z,44.20
2018-04-19T07:01:38.591Z,44.20
2018-04-19T07:04:06.123Z,45.10
2018-04-19T07:06:35.179Z,45.20
2018-04-19T07:09:02.636Z,44.10
2018-04-19T07:11:30.311Z,45.30
2018-04-19T07:13:57.883Z,46.40
2018-04-19T07:16:25.984Z,46.10
2018-04-19T07:18:53.598Z,48.20
2018-04-19T07:21:21.138Z,48.10
2018-04-19T07:23:49.460Z,46.90
2018-04-19T07:26:17.620Z,46.90
2018-04-19T07:28:45.159Z,46.20
2018-04-19T07:31:13.026Z,46.80
2018-04-19T07:33:40.529Z,48.60
2018-04-19T07:36:08.033Z,49.50
2018-04-19T07:38:36.900Z,54.50
2018-04-19T07:41:04.419Z,54.50
2018-04-19T07:43:31.944Z,56.60
2018-04-19T07:46:00.203Z,59.10
2018-04-19T07:48:27.743Z,59.00
2018-04-19T07:50:55.273Z,61.70
2018-04-19T07:53:22.830Z,63.00
2018-04-19T07:55:50.315Z,64.20
2018-04-19T07:58:17.849Z,65.10
2018-04-19T08:00:45.417Z,64.40
2018-04-19T08:03:12.887Z,64.20
2018-04-19T08:05:40.438Z,63.90
2018-04-19T08:08:08.081Z,64.30
2018-04-19T08:10:35.607Z,64.50
2018-04-19T08:13:03.109Z,63.70
2018-04-19T08:15:30.660Z,63.80
2018-04-19T08:17:58.215Z,63.60
2018-04-19T08:20:25.948Z,63.90
2018-04-19T08:22:53.937Z,63.50
2018-04-19T08:25:22.182Z,62.80
2018-04-19T08:27:49.706Z,62.80
2018-04-19T08:30:17.193Z,62.00
2018-04-19T08:32:44.683Z,62.00
2018-04-19T08:35:12.939Z,60.20
2018-04-19T08:37:41.221Z,60.10
2018-04-19T08:40:08.741Z,59.60
2018-04-19T08:42:36.875Z,58.20
2018-04-19T08:45:04.479Z,56.60
2018-04-19T08:47:32.891Z,56.80
2018-04-19T08:50:03.405Z,56.50
2018-04-19T08:52:30.869Z,56.60
2018-04-19T08:54:58.352Z,55.80
2018-04-19T08:57:26.707Z,50.90
2018-04-19T08:59:54.216Z,50.70
2018-04-19T09:02:21.705Z,43.20
2018-04-19T09:04:49.208Z,41.60
2018-04-19T09:07:17.451Z,39.30
2018-04-19T09:09:44.951Z,39.10
2018-04-19T09:12:12.463Z,39.60
2018-04-19T09:14:40.024Z,39.30
2018-04-19T09:17:07.606Z,37.00
2018-04-19T09:19:35.270Z,35.80
2018-04-19T09:22:02.758Z,35.10
2018-04-19T09:24:31.096Z,33.80
2018-04-19T09:27:06.520Z,34.70
2018-04-19T09:39:20.293Z,33.90
2018-04-19T09:41:47.812Z,32.70
2018-04-19T09:44:17.587Z,33.60
2018-04-19T09:46:45.081Z,33.40
2018-04-19T09:49:12.576Z,30.30
2018-04-19T09:51:48.193Z,29.90
2018-04-19T09:54:16.579Z,30.80
2018-04-19T09:56:44.395Z,30.80
2018-04-19T09:59:13.140Z,30.90
2018-04-19T10:01:47.231Z,29.00
2018-04-19T10:04:15.511Z,29.20
2018-04-19T10:06:43.449Z,29.20
2018-04-19T10:09:11.055Z,28.80
2018-04-19T10:11:38.916Z,29.40
2018-04-19T10:14:06.410Z,29.30
2018-04-19T10:16:34.588Z,29.50
2018-04-19T10:19:02.066Z,28.00
2018-04-19T10:21:29.602Z,28.30
2018-04-19T10:23:57.778Z,27.60
2018-04-19T10:26:25.353Z,27.80
2018-04-19T10:28:52.910Z,28.00
2018-04-19T10:31:20.383Z,28.30
2018-04-19T10:33:47.963Z,28.30
2018-04-19T10:36:15.389Z,27.90
2018-04-19T10:38:42.901Z,32.00
2018-04-19T10:41:11.234Z,37.70
2018-04-19T10:43:38.843Z,37.70
2018-04-19T10:46:07.112Z,37.40
2018-04-19T10:48:38.001Z,37.40
2018-04-19T10:51:05.502Z,34.70
2018-04-19T10:53:33.014Z,35.50
2018-04-19T10:56:00.523Z,37.90
2018-04-19T10:58:29.299Z,38.00
2018-04-19T11:00:56.821Z,37.90
2018-04-19T11:03:28.679Z,39.40
2018-04-19T11:28:52.935Z,40.00
2018-04-19T11:31:21.313Z,40.00
2018-04-19T11:33:50.135Z,40.60
2018-04-19T11:36:19.402Z,39.70
2018-04-19T11:38:48.224Z,39.80
2018-04-19T11:41:17.285Z,38.00
2018-04-19T11:43:46.299Z,38.00
2018-04-19T11:46:14.395Z,37.80
2018-04-19T11:48:49.457Z,39.90
2018-04-19T11:51:21.588Z,39.80
2018-04-19T11:53:55.179Z,40.90
2018-04-19T11:56:22.688Z,40.80
2018-04-19T11:58:50.182Z,39.30
2018-04-19T12:01:17.775Z,37.80
2018-04-19T12:03:45.277Z,37.30
2018-04-19T12:06:12.775Z,36.70
2018-04-19T12:08:40.427Z,37.20
2018-04-19T12:11:07.918Z,37.50
2018-04-19T12:13:36.239Z,36.90
2018-04-19T12:16:03.810Z,36.80
2018-04-19T12:18:31.335Z,36.50
2018-04-19T12:20:58.826Z,36.80
2018-04-19T12:23:26.376Z,35.80
2018-04-19T12:25:53.932Z,35.70
2018-04-19T12:28:21.535Z,35.70
2018-04-19T12:30:49.707Z,36.50
2018-04-19T12:33:17.200Z,35.90
2018-04-19T12:35:44.698Z,35.60
2018-04-19T12:38:12.223Z,35.50
2018-04-19T12:40:39.729Z,35.20
2018-04-19T12:43:07.899Z,36.50
2018-04-19T12:45:36.419Z,37.20
2018-04-19T12:48:03.947Z,37.20
2018-04-19T12:50:31.486Z,37.20
2018-04-19T12:52:58.997Z,35.90
2018-04-19T12:55:27.325Z,33.90
2018-04-19T12:57:54.856Z,33.90
2018-04-19T13:00:22.522Z,33.60
2018-04-19T13:02:50.080Z,34.60
2018-04-19T13:05:19.111Z,35.70
2018-04-19T13:07:47.619Z,34.10
2018-04-19T13:10:15.137Z,34.10
2018-04-19T13:12:42.618Z,34.70
2018-04-19T13:15:10.134Z,34.80
2018-04-19T13:17:37.633Z,34.70
2018-04-19T13:20:05.138Z,33.70
2018-04-19T13:22:32.666Z,33.10
2018-04-19T13:25:00.184Z,32.10
2018-04-19T13:27:27.674Z,30.50
2018-04-19T13:29:55.178Z,30.40
2018-04-19T13:32:22.670Z,29.90
2018-04-19T13:34:50.216Z,30.20
2018-04-19T13:37:17.776Z,30.10
2018-04-19T13:39:45.730Z,30.90
2018-04-19T13:42:13.237Z,30.40
2018-04-19T13:44:40.705Z,30.00
2018-04-19T13:47:08.206Z,30.90
2018-04-19T13:49:36.539Z,31.70
2018-04-19T13:52:04.134Z,31.50
2018-04-19T14:07:26.685Z,31.50
2018-04-19T14:09:54.184Z,30.90
2018-04-19T14:12:21.692Z,30.50
2018-04-19T14:14:49.218Z,30.20
2018-04-19T14:17:16.722Z,29.90
2018-04-19T14:19:44.202Z,30.10
2018-04-19T14:22:11.711Z,29.80
2018-04-19T14:24:39.954Z,29.60
2018-04-19T14:27:07.456Z,29.60
2018-04-19T14:29:35.697Z,29.70
2018-04-19T14:32:03.250Z,29.70
2018-04-19T14:34:30.750Z,29.90
2018-04-19T14:36:58.310Z,30.10
2018-04-19T14:39:26.743Z,30.70
2018-04-19T14:41:54.202Z,30.70
2018-04-19T14:44:21.808Z,30.50
2018-04-19T14:46:50.180Z,30.00
2018-04-19T14:49:18.477Z,30.00
2018-04-19T14:51:46.691Z,29.90
2018-04-19T14:54:14.182Z,29.90
2018-04-19T14:56:42.446Z,30.40
2018-04-19T14:59:09.911Z,30.30
2018-04-19T15:01:37.922Z,30.00
2018-04-19T15:04:05.399Z,30.20
2018-04-19T15:06:33.946Z,29.50
2018-04-19T15:09:02.216Z,30.00
2018-04-19T15:11:30.435Z,30.30
2018-04-19T15:13:57.979Z,30.20
2018-04-19T15:16:25.495Z,31.00
2018-04-19T15:18:52.993Z,31.60
2018-04-19T15:21:20.623Z,31.90
2018-04-19T15:23:48.921Z,32.20
2018-04-19T15:26:16.425Z,32.20
2018-04-19T15:28:43.935Z,33.20
2018-04-19T15:31:12.192Z,32.50
2018-04-19T15:33:40.421Z,33.80
2018-04-19T15:36:08.383Z,33.10
2018-04-19T15:38:35.897Z,33.40
2018-04-19T15:41:04.154Z,33.90
2018-04-19T15:43:31.650Z,33.80
2018-04-19T15:45:59.235Z,34.30
2018-04-19T15:48:26.726Z,34.80
2018-04-19T15:50:54.230Z,35.00
2018-04-19T15:53:21.690Z,34.90
2018-04-19T15:55:49.293Z,34.80
2018-04-19T15:58:16.770Z,35.30
2018-04-19T16:00:44.755Z,35.60
2018-04-19T16:03:13.008Z,35.70
2018-04-19T16:05:41.391Z,35.70
2018-04-19T16:08:08.922Z,35.30
2018-04-19T16:10:36.412Z,35.10
2018-04-19T16:13:03.892Z,35.40
2018-04-19T16:15:32.168Z,35.70
2018-04-19T16:17:59.671Z,35.70
2018-04-19T16:20:27.163Z,35.90
2018-04-19T16:22:54.666Z,36.50
2018-04-19T16:25:22.178Z,36.50
2018-04-19T16:27:49.712Z,36.50
2018-04-19T16:30:17.208Z,36.80
2018-04-19T16:32:44.720Z,37.40
2018-04-19T16:35:12.215Z,37.40
2018-04-19T16:37:39.717Z,37.50
2018-04-19T16:40:07.248Z,37.40
2018-04-19T16:42:34.715Z,37.70
2018-04-19T16:45:03.084Z,37.80
2018-04-19T16:47:30.673Z,37.90
2018-04-19T16:49:58.967Z,38.10
2018-04-19T16:52:26.464Z,38.00
2018-04-19T16:54:53.959Z,38.00
2018-04-19T16:57:21.475Z,38.10
2018-04-19T16:59:49.029Z,38.70
2018-04-19T17:02:16.695Z,39.10
2018-04-19T17:04:44.168Z,39.70
2018-04-19T17:07:11.721Z,40.10
2018-04-19T17:09:40.295Z,40.50
2018-04-19T17:12:07.832Z,41.20
2018-04-19T17:14:35.347Z,41.80
2018-04-19T17:17:03.595Z,42.90
2018-04-19T17:19:31.996Z,42.90
2018-04-19T17:21:59.489Z,43.40
2018-04-19T17:24:26.985Z,43.60
2018-04-19T17:26:54.940Z,43.70
2018-04-19T17:29:22.420Z,44.00
2018-04-19T17:31:49.924Z,43.90
2018-04-19T17:34:17.428Z,44.40
2018-04-19T17:36:44.981Z,44.40
2018-04-19T17:39:12.459Z,44.60
2018-04-19T17:41:39.942Z,44.80
2018-04-19T17:44:08.222Z,45.50
2018-04-19T17:46:36.491Z,45.80
2018-04-19T17:49:04.751Z,46.20
2018-04-19T17:51:32.223Z,46.20
2018-04-19T17:54:00.468Z,47.30
2018-04-19T17:56:28.052Z,47.30
2018-04-19T17:58:55.569Z,47.40
2018-04-19T18:01:23.538Z,47.70
2018-04-19T18:03:51.039Z,48.20
2018-04-19T18:06:19.312Z,49.00
2018-04-19T18:08:46.800Z,49.00
2018-04-19T18:11:14.307Z,49.70
2018-04-19T18:13:41.823Z,50.60
2018-04-19T18:16:10.066Z,50.20
2018-04-19T18:18:37.539Z,50.20
2018-04-19T18:21:05.953Z,50.60
2018-04-19T18:23:33.869Z,50.60
2018-04-19T18:26:02.775Z,51.10
2018-04-19T18:28:31.252Z,50.40
2018-04-19T18:30:58.796Z,50.40
2018-04-19T18:33:26.302Z,51.60
2018-04-19T18:35:53.798Z,50.80
2018-04-19T18:38:21.487Z,51.80
2018-04-19T18:40:49.038Z,51.50
2018-04-19T18:43:16.551Z,51.60
2018-04-19T18:45:44.044Z,52.80
2018-04-19T18:48:11.552Z,52.10
2018-04-19T18:50:39.031Z,52.30
2018-04-19T18:53:06.674Z,52.60
2018-04-19T18:55:34.196Z,53.00
2018-04-19T18:58:01.945Z,53.20
2018-04-19T19:00:29.491Z,53.30
2018-04-19T19:02:57.990Z,53.60
2018-04-19T19:05:25.507Z,54.30
2018-04-19T19:07:53.035Z,54.00
2018-04-19T19:10:20.513Z,54.10
2018-04-19T19:12:48.032Z,54.00
2018-04-19T19:18:42.113Z,55.40
2018-04-19T19:21:09.729Z,55.20
2018-04-19T19:23:37.270Z,55.50
2018-04-19T19:26:05.849Z,55.50
2018-04-19T19:28:34.734Z,55.20
2018-04-19T19:31:03.409Z,55.20
2018-04-19T19:33:31.578Z,54.80
2018-04-19T19:36:00.217Z,54.60
2018-04-19T19:38:28.445Z,54.40
2018-04-19T19:40:56.236Z,54.10
2018-04-19T19:43:23.948Z,54.00
2018-04-19T19:45:51.516Z,54.40
2018-04-19T19:48:19.324Z,54.50
2018-04-19T19:50:47.588Z,55.40
2018-04-19T19:53:15.246Z,55.30
2018-04-19T19:55:42.883Z,55.70
2018-04-19T19:58:10.455Z,56.80
2018-04-19T20:00:38.437Z,57.70
2018-04-19T20:03:06.054Z,58.90
2018-04-19T20:05:33.546Z,60.30
2018-04-19T20:08:01.126Z,60.50
2018-04-19T20:10:28.704Z,60.90
2018-04-19T20:12:56.185Z,61.70
2018-04-19T20:15:24.400Z,62.00
2018-04-19T20:17:51.916Z,62.10
2018-04-19T20:20:19.417Z,62.40
2018-04-19T20:22:46.927Z,62.70
2018-04-19T20:25:14.541Z,63.30
2018-04-19T20:27:42.078Z,63.20
2018-04-19T20:30:09.599Z,62.10
2018-04-19T20:32:37.863Z,61.30
2018-04-19T20:35:05.330Z,61.40
2018-04-19T20:37:33.588Z,62.20
2018-04-19T20:40:01.103Z,62.10
2018-04-19T20:42:28.602Z,62.80
2018-04-19T20:44:56.125Z,63.10
2018-04-19T20:47:23.645Z,63.00
2018-04-19T20:49:52.139Z,63.00
2018-04-19T20:52:19.763Z,62.80
2018-04-19T20:54:47.258Z,63.00
2018-04-19T20:57:14.776Z,63.60
2018-04-19T20:59:43.095Z,64.20
2018-04-19T21:02:10.601Z,64.10
2018-04-19T21:04:38.110Z,64.40
2018-04-19T21:07:05.663Z,64.40
2018-04-19T21:09:33.914Z,65.40
2018-04-19T21:12:01.669Z,65.40
2018-04-19T21:14:29.327Z,65.50
2018-04-19T21:16:56.981Z,66.20
2018-04-19T21:19:24.658Z,66.60
2018-04-19T21:21:53.046Z,66.90
2018-04-19T21:24:20.692Z,66.90
2018-04-19T21:26:48.397Z,66.80
2018-04-19T21:29:15.950Z,66.80
2018-04-19T21:31:44.330Z,67.80
2018-04-19T21:34:12.627Z,67.10
2018-04-19T21:36:40.186Z,67.10
2018-04-19T21:39:07.797Z,67.80
2018-04-19T21:41:35.355Z,67.60
2018-04-19T21:44:03.660Z,67.10
2018-04-19T21:46:31.287Z,67.00
2018-04-19T21:48:58.825Z,66.80
2018-04-19T21:51:26.442Z,67.30
2018-04-19T21:53:54.046Z,67.20
2018-04-19T21:56:21.553Z,68.20
2018-04-19T21:58:49.033Z,66.60
2018-04-19T22:01:17.321Z,68.30
2018-04-19T22:03:44.841Z,68.30
2018-04-19T22:06:12.361Z,67.80
2018-04-19T22:08:39.876Z,68.20
2018-04-19T22:11:08.142Z,68.00
2018-04-19T22:13:35.686Z,67.90
2018-04-19T22:16:03.690Z,67.70
2018-04-19T22:18:31.999Z,67.90
2018-04-19T22:20:59.511Z,67.90
2018-04-19T22:23:27.027Z,69.70
2018-04-19T22:25:54.605Z,68.50
2018-04-19T22:28:22.127Z,69.70
2018-04-19T22:30:49.603Z,69.60
2018-04-19T22:33:17.163Z,70.00
2018-04-19T22:35:44.725Z,69.20
2018-04-19T22:38:12.306Z,69.50
2018-04-19T22:40:39.811Z,69.80
2018-04-19T22:43:08.116Z,70.40
2018-04-19T22:45:35.694Z,70.30
2018-04-19T22:48:03.247Z,70.00
2018-04-19T22:50:31.466Z,71.20
2018-04-19T22:52:59.727Z,71.80
2018-04-19T22:55:27.279Z,71.70
2018-04-19T22:57:54.819Z,71.60
2018-04-19T23:00:24.927Z,72.10
2018-04-19T23:02:52.449Z,72.80
2018-04-19T23:05:20.757Z,72.50
2018-04-19T23:07:49.037Z,72.50
2018-04-19T23:10:16.564Z,73.00
2018-04-19T23:12:44.825Z,73.30
2018-04-19T23:15:12.398Z,73.10
2018-04-19T23:17:40.730Z,73.70
2018-04-19T23:20:09.321Z,73.60
2018-04-19T23:22:37.635Z,73.30
2018-04-19T23:25:05.976Z,73.60
2018-04-19T23:27:34.083Z,73.40
2018-04-19T23:30:01.796Z,74.30
2018-04-19T23:32:29.349Z,74.50
2018-04-19T23:34:56.882Z,75.10
2018-04-19T23:37:25.159Z,75.10
2018-04-19T23:39:53.440Z,75.70
2018-04-19T23:42:21.732Z,75.30
2018-04-19T23:44:49.790Z,75.20
2018-04-19T23:47:18.111Z,75.80
2018-04-19T23:49:45.597Z,75.70
2018-04-19T23:52:13.103Z,76.20
2018-04-19T23:54:40.873Z,76.80
2018-04-19T23:57:08.639Z,75.50
2018-04-19T23:59:36.591Z,74.90
